createdAt,value
2022-07-31T10:25:37.849Z,50.18
2022-07-31T10:26:59.815Z,51.00
2022-07-31T10:27:39.489Z,51.70
2022-07-31T10:28:37.795Z,50.10
2022-07-31T10:29:37.786Z,50.90
2022-07-31T10:30:37.766Z,50.73
2022-07-31T10:31:37.755Z,49.73
2022-07-31T10:32:37.763Z,51.52
2022-07-31T10:33:45.275Z,51.12
2022-07-31T10:34:38.732Z,51.52
2022-07-31T10:35:37.715Z,52.42
2022-07-31T10:36:37.705Z,53.41
2022-07-31T10:37:37.685Z,54.08
2022-07-31T10:38:38.458Z,52.19
2022-07-31T10:39:37.666Z,50.88
2022-07-31T10:40:37.658Z,50.98
2022-07-31T10:41:37.656Z,50.38
2022-07-31T10:42:37.634Z,49.58
2022-07-31T10:43:37.625Z,49.98
2022-07-31T10:44:38.856Z,51.77
2022-07-31T10:45:37.607Z,52.86
2022-07-31T10:46:37.605Z,51.57
2022-07-31T10:47:37.584Z,50.98
2022-07-31T10:48:37.565Z,52.47
2022-07-31T10:49:37.658Z,53.26
2022-07-31T10:50:37.545Z,52.56
2022-07-31T10:51:37.537Z,54.53
2022-07-31T10:52:37.534Z,51.15
2022-07-31T10:53:50.974Z,50.13
2022-07-31T10:54:38.494Z,46.93
2022-07-31T10:55:37.486Z,49.61
2022-07-31T10:56:37.474Z,49.61
2022-07-31T10:57:56.397Z,50.21
2022-07-31T10:58:38.453Z,49.69
2022-07-31T10:59:39.763Z,49.88
2022-07-31T11:00:38.434Z,50.26
2022-07-31T11:01:37.471Z,51.32
2022-07-31T11:02:37.415Z,49.54
2022-07-31T11:03:37.414Z,49.84
2022-07-31T11:04:37.383Z,48.82
2022-07-31T11:06:02.394Z,47.16
2022-07-31T11:06:38.364Z,46.67
2022-07-31T11:07:37.356Z,47.26
2022-07-31T11:08:37.354Z,48.45
2022-07-31T11:09:51.254Z,49.05
2022-07-31T11:10:38.402Z,47.06
2022-07-31T11:11:37.313Z,49.05
2022-07-31T11:12:37.295Z,47.09
2022-07-31T11:13:37.412Z,48.18
2022-07-31T11:14:37.299Z,45.82
2022-07-31T11:15:37.264Z,46.12
2022-07-31T11:16:37.254Z,48.27
2022-07-31T11:18:21.268Z,45.62
2022-07-31T11:18:38.223Z,47.49
2022-07-31T11:19:41.381Z,46.79
2022-07-31T11:20:37.214Z,46.79
2022-07-31T11:21:39.547Z,46.98
2022-07-31T11:22:37.184Z,46.39
2022-07-31T11:23:37.175Z,47.09
2022-07-31T11:24:37.165Z,44.81
2022-07-31T11:25:37.174Z,45.90
2022-07-31T11:26:41.582Z,45.00
2022-07-31T11:27:38.135Z,45.03
2022-07-31T11:28:37.125Z,47.50
2022-07-31T11:30:00.317Z,47.33
2022-07-31T11:30:38.105Z,47.53
2022-07-31T11:31:37.095Z,45.27
2022-07-31T11:32:37.075Z,47.85
2022-07-31T11:33:41.995Z,49.24
2022-07-31T11:34:38.068Z,48.14
2022-07-31T11:35:37.045Z,48.14
2022-07-31T11:36:37.036Z,48.74
2022-07-31T11:37:46.126Z,47.65
2022-07-31T11:38:38.013Z,47.28
2022-07-31T11:39:37.393Z,48.07
2022-07-31T11:40:37.003Z,47.17
2022-07-31T11:41:41.069Z,47.67
2022-07-31T11:42:37.965Z,49.26
2022-07-31T11:43:36.954Z,50.85
2022-07-31T11:44:36.944Z,52.24
2022-07-31T11:45:36.981Z,50.85
2022-07-31T11:46:36.935Z,48.86
2022-07-31T11:48:12.962Z,49.56
2022-07-31T11:48:42.197Z,49.16
2022-07-31T11:49:41.770Z,50.56
2022-07-31T11:50:37.884Z,50.95
2022-07-31T11:51:36.905Z,51.54
2022-07-31T11:52:37.932Z,53.23
2022-07-31T11:53:36.855Z,50.45
2022-07-31T11:54:36.834Z,49.16
2022-07-31T11:55:36.834Z,49.07
2022-07-31T11:56:36.827Z,48.77
2022-07-31T11:57:52.579Z,48.96
2022-07-31T11:58:37.787Z,50.35
2022-07-31T11:59:46.127Z,48.37
2022-07-31T12:00:37.791Z,49.26
2022-07-31T12:01:36.754Z,48.17
2022-07-31T12:02:36.779Z,48.27
2022-07-31T12:03:36.779Z,48.69
2022-07-31T12:04:36.714Z,49.49
2022-07-31T12:05:38.863Z,48.59
2022-07-31T12:06:36.921Z,47.40
2022-07-31T12:07:36.686Z,48.99
2022-07-31T12:08:36.692Z,48.11
2022-07-31T12:10:01.328Z,49.41
2022-07-31T12:10:37.654Z,48.71
2022-07-31T12:11:36.643Z,50.38
2022-07-31T12:12:36.624Z,49.96
2022-07-31T12:13:36.628Z,47.75
2022-07-31T12:14:36.617Z,48.62
2022-07-31T12:15:36.594Z,46.93
2022-07-31T12:16:36.618Z,47.01
2022-07-31T12:17:36.573Z,46.69
2022-07-31T12:18:36.553Z,44.81
2022-07-31T12:19:37.281Z,44.78
2022-07-31T12:20:37.298Z,43.57
2022-07-31T12:21:36.534Z,45.36
2022-07-31T12:22:36.564Z,45.57
2022-07-31T12:23:40.551Z,45.78
2022-07-31T12:24:37.494Z,45.28
2022-07-31T12:25:36.493Z,44.31
2022-07-31T12:26:36.474Z,45.20
2022-07-31T12:27:36.464Z,44.83
2022-07-31T12:28:36.451Z,44.63
2022-07-31T12:29:36.444Z,45.12
2022-07-31T12:30:36.423Z,45.20
2022-07-31T12:31:36.434Z,44.49
2022-07-31T12:32:36.403Z,45.57
2022-07-31T12:33:36.393Z,46.86
2022-07-31T12:34:36.384Z,45.38
2022-07-31T12:35:55.341Z,44.49
2022-07-31T12:36:37.406Z,43.99
2022-07-31T12:37:36.390Z,45.18
2022-07-31T12:38:45.530Z,44.29
2022-07-31T12:39:53.851Z,44.49
2022-07-31T12:40:37.314Z,43.99
2022-07-31T12:41:36.323Z,44.29
2022-07-31T12:42:41.154Z,44.86
2022-07-31T12:43:37.297Z,46.84
2022-07-31T12:44:36.274Z,43.75
2022-07-31T12:45:36.276Z,44.45
2022-07-31T12:46:36.255Z,44.64
2022-07-31T12:47:36.243Z,45.93
2022-07-31T12:48:40.143Z,44.15
2022-07-31T12:49:37.321Z,43.85
2022-07-31T12:50:36.204Z,44.92
2022-07-31T12:51:44.635Z,44.32
2022-07-31T12:52:37.184Z,43.04
2022-07-31T12:53:36.173Z,43.53
2022-07-31T12:54:39.371Z,43.53
2022-07-31T12:55:36.174Z,43.04
2022-07-31T12:56:36.136Z,43.04
2022-07-31T12:57:36.142Z,43.63
2022-07-31T12:58:37.144Z,43.63
2022-07-31T12:59:36.130Z,42.54
2022-07-31T13:00:40.018Z,42.74
2022-07-31T13:01:36.135Z,42.66
2022-07-31T13:02:36.064Z,41.87
2022-07-31T13:03:45.677Z,43.13
2022-07-31T13:04:37.067Z,41.55
2022-07-31T13:05:36.057Z,43.04
2022-07-31T13:06:36.070Z,43.63
2022-07-31T13:07:36.014Z,44.92
2022-07-31T13:08:36.009Z,42.44
2022-07-31T13:09:35.996Z,42.66
2022-07-31T13:10:35.991Z,44.64
2022-07-31T13:11:45.942Z,41.97
2022-07-31T13:12:36.956Z,42.07
2022-07-31T13:13:35.958Z,44.05
2022-07-31T13:14:35.954Z,43.16
2022-07-31T13:15:35.924Z,42.17
2022-07-31T13:16:35.933Z,42.36
2022-07-31T13:17:35.902Z,41.77
2022-07-31T13:18:35.894Z,41.57
2022-07-31T13:19:35.874Z,43.06
2022-07-31T13:20:35.864Z,45.14
2022-07-31T13:21:40.046Z,44.45
2022-07-31T13:22:36.843Z,43.65
2022-07-31T13:23:35.835Z,44.84
2022-07-31T13:24:35.824Z,44.45
2022-07-31T13:25:35.820Z,43.85
2022-07-31T13:26:35.794Z,45.34
2022-07-31T13:27:35.809Z,45.23
2022-07-31T13:28:35.784Z,45.83
2022-07-31T13:29:35.774Z,43.46
2022-07-31T13:30:35.753Z,42.68
2022-07-31T13:31:35.746Z,42.49
2022-07-31T13:32:35.735Z,42.31
2022-07-31T13:33:35.734Z,42.50
2022-07-31T13:34:35.713Z,43.00
2022-07-31T13:35:35.721Z,44.09
2022-07-31T13:36:39.239Z,42.71
2022-07-31T13:37:35.684Z,41.20
2022-07-31T13:38:35.703Z,41.20
2022-07-31T13:39:35.663Z,42.19
2022-07-31T13:40:35.656Z,41.89
2022-07-31T13:41:35.904Z,41.10
2022-07-31T13:42:35.635Z,42.88
2022-07-31T13:43:35.623Z,42.88
2022-07-31T13:44:35.632Z,44.24
2022-07-31T13:45:35.594Z,43.16
2022-07-31T13:46:35.597Z,43.35
2022-07-31T13:47:51.434Z,43.75
2022-07-31T13:48:36.554Z,44.74
2022-07-31T13:49:35.622Z,43.65
2022-07-31T13:50:35.536Z,44.17
2022-07-31T13:51:35.543Z,44.27
2022-07-31T13:52:35.515Z,43.48
2022-07-31T13:53:35.533Z,43.79
2022-07-31T13:54:35.494Z,44.68
2022-07-31T13:55:35.493Z,46.97
2022-07-31T13:56:42.030Z,46.07
2022-07-31T13:57:36.482Z,44.59
2022-07-31T13:58:35.465Z,46.30
2022-07-31T13:59:35.445Z,44.81
2022-07-31T14:00:35.439Z,44.60
2022-07-31T14:02:03.620Z,43.89
2022-07-31T14:02:36.457Z,43.79
2022-07-31T14:03:35.465Z,43.49
2022-07-31T14:04:38.748Z,43.10
2022-07-31T14:05:40.308Z,44.19
2022-07-31T14:06:36.363Z,43.99
2022-07-31T14:07:48.130Z,44.17
2022-07-31T14:08:49.856Z,45.06
2022-07-31T14:09:36.333Z,47.83
2022-07-31T14:10:35.355Z,43.38
2022-07-31T14:11:35.323Z,43.48
2022-07-31T14:12:35.344Z,46.52
2022-07-31T14:13:35.293Z,44.64
2022-07-31T14:14:36.281Z,45.04
2022-07-31T14:15:35.264Z,45.43
2022-07-31T14:16:35.273Z,44.15
2022-07-31T14:17:35.244Z,42.66
2022-07-31T14:18:35.243Z,42.14
2022-07-31T14:19:44.208Z,42.44
2022-07-31T14:20:36.211Z,44.23
2022-07-31T14:21:35.203Z,42.44
2022-07-31T14:22:35.183Z,42.64
2022-07-31T14:23:40.166Z,41.95
2022-07-31T14:24:36.164Z,42.64
2022-07-31T14:25:35.154Z,44.02
2022-07-31T14:26:35.143Z,43.21
2022-07-31T14:27:35.133Z,42.32
2022-07-31T14:28:35.133Z,43.71
2022-07-31T14:29:36.098Z,43.41
2022-07-31T14:30:35.097Z,42.60
2022-07-31T14:31:35.083Z,43.39
2022-07-31T14:32:35.074Z,42.30
2022-07-31T14:33:35.064Z,42.90
2022-07-31T14:34:35.852Z,42.40
2022-07-31T14:35:35.033Z,42.80
2022-07-31T14:36:35.023Z,43.59
2022-07-31T14:37:35.023Z,43.98
2022-07-31T14:38:35.004Z,42.60
2022-07-31T14:39:35.008Z,43.02
2022-07-31T14:40:34.995Z,43.51
2022-07-31T14:41:34.973Z,43.29
2022-07-31T14:42:34.965Z,44.09
2022-07-31T14:43:34.953Z,42.58
2022-07-31T14:44:34.933Z,42.96
2022-07-31T14:45:50.024Z,40.56
2022-07-31T14:46:35.913Z,40.62
2022-07-31T14:47:34.903Z,41.25
2022-07-31T14:48:35.059Z,37.30
2022-07-31T14:50:06.882Z,37.74
2022-07-31T14:50:35.884Z,37.16
2022-07-31T14:51:34.863Z,38.26
2022-07-31T14:52:34.891Z,40.25
2022-07-31T14:53:34.851Z,39.39
2022-07-31T14:54:34.823Z,39.40
2022-07-31T14:55:34.834Z,38.81
2022-07-31T14:56:59.866Z,39.62
2022-07-31T14:57:35.794Z,39.64
2022-07-31T14:58:58.223Z,41.22
2022-07-31T14:59:35.773Z,42.02
2022-07-31T15:00:34.775Z,41.24
2022-07-31T15:01:34.899Z,42.05
2022-07-31T15:02:34.742Z,41.77
2022-07-31T15:03:34.732Z,41.67
2022-07-31T15:04:34.713Z,40.31
2022-07-31T15:06:39.514Z,40.33
2022-07-31T15:06:41.755Z,41.44
2022-07-31T15:07:38.433Z,41.24
2022-07-31T15:08:35.667Z,41.95
2022-07-31T15:09:34.663Z,43.24
2022-07-31T15:10:34.644Z,42.54
2022-07-31T15:11:59.276Z,42.46
2022-07-31T15:12:35.634Z,42.57
2022-07-31T15:13:38.779Z,43.85
2022-07-31T15:14:34.604Z,44.24
2022-07-31T15:15:34.594Z,43.75
2022-07-31T15:16:34.585Z,43.95
2022-07-31T15:17:34.594Z,43.65
2022-07-31T15:18:34.556Z,43.65
2022-07-31T15:19:34.545Z,43.95
2022-07-31T15:20:34.535Z,45.21
2022-07-31T15:21:34.525Z,43.93
2022-07-31T15:22:34.504Z,45.01
2022-07-31T15:23:35.797Z,42.25
2022-07-31T15:24:34.485Z,42.94
2022-07-31T15:25:34.481Z,43.73
2022-07-31T15:26:34.467Z,43.93
2022-07-31T15:27:34.455Z,43.93
2022-07-31T15:28:34.444Z,44.92
2022-07-31T15:30:05.516Z,43.24
2022-07-31T15:30:35.416Z,43.73
2022-07-31T15:31:34.405Z,44.23
2022-07-31T15:32:34.409Z,45.01
2022-07-31T15:33:34.384Z,45.90
2022-07-31T15:34:34.375Z,45.59
2022-07-31T15:35:34.394Z,44.70
2022-07-31T15:36:34.345Z,44.70
2022-07-31T15:37:34.337Z,44.31
2022-07-31T15:38:34.329Z,43.02
2022-07-31T15:39:34.314Z,43.53
2022-07-31T15:40:34.295Z,44.62
2022-07-31T15:41:34.376Z,43.53
2022-07-31T15:42:34.274Z,44.42
2022-07-31T15:43:34.275Z,45.12
2022-07-31T15:44:34.254Z,47.12
2022-07-31T15:45:34.262Z,44.24
2022-07-31T15:46:34.235Z,44.84
2022-07-31T15:47:34.225Z,45.34
2022-07-31T15:48:34.206Z,44.76
2022-07-31T15:49:44.421Z,45.26
2022-07-31T15:50:35.204Z,46.84
2022-07-31T15:51:34.176Z,45.85
2022-07-31T15:52:34.177Z,46.35
2022-07-31T15:53:39.074Z,46.52
2022-07-31T15:54:35.145Z,48.21
2022-07-31T15:55:34.133Z,44.05
2022-07-31T15:56:34.277Z,43.75
2022-07-31T15:57:34.112Z,45.53
2022-07-31T15:58:34.095Z,46.62
2022-07-31T15:59:34.094Z,47.52
2022-07-31T16:00:34.076Z,46.33
2022-07-31T16:01:34.134Z,48.60
2022-07-31T16:02:34.064Z,49.29
2022-07-31T16:03:50.555Z,48.60
2022-07-31T16:04:35.034Z,47.81
2022-07-31T16:05:36.954Z,48.30
2022-07-31T16:06:34.015Z,46.52
2022-07-31T16:08:31.562Z,47.52
2022-07-31T16:08:35.924Z,46.82
2022-07-31T16:09:34.026Z,46.12
2022-07-31T16:10:33.954Z,46.82
2022-07-31T16:12:05.396Z,47.02
2022-07-31T16:12:34.945Z,46.72
2022-07-31T16:13:33.932Z,47.22
2022-07-31T16:14:33.917Z,47.52
2022-07-31T16:15:33.905Z,47.22
2022-07-31T16:16:33.915Z,46.35
2022-07-31T16:17:33.885Z,47.34
2022-07-31T16:18:33.877Z,47.63
2022-07-31T16:19:33.865Z,48.63
2022-07-31T16:20:33.855Z,50.01
2022-07-31T16:21:33.845Z,49.52
2022-07-31T16:22:33.843Z,49.81
2022-07-31T16:23:33.824Z,50.43
2022-07-31T16:24:33.813Z,49.54
2022-07-31T16:25:35.122Z,50.04
2022-07-31T16:26:33.794Z,49.54
2022-07-31T16:27:33.784Z,49.76
2022-07-31T16:28:33.765Z,49.37
2022-07-31T16:30:01.022Z,48.87
2022-07-31T16:30:34.746Z,49.07
2022-07-31T16:31:33.743Z,49.86
2022-07-31T16:32:33.724Z,49.96
2022-07-31T16:33:33.716Z,49.66
2022-07-31T16:34:33.705Z,49.66
2022-07-31T16:35:33.684Z,52.04
2022-07-31T16:36:33.685Z,51.82
2022-07-31T16:37:51.951Z,51.62
2022-07-31T16:38:34.664Z,50.13
2022-07-31T16:39:33.645Z,49.37
2022-07-31T16:40:33.636Z,49.57
2022-07-31T16:41:33.621Z,49.96
2022-07-31T16:42:33.615Z,50.26
2022-07-31T16:43:50.508Z,50.26
2022-07-31T16:44:34.597Z,50.26
2022-07-31T16:45:33.575Z,49.99
2022-07-31T16:46:33.565Z,50.58
2022-07-31T16:47:45.703Z,51.07
2022-07-31T16:48:34.548Z,49.79
2022-07-31T16:49:36.611Z,49.88
2022-07-31T16:50:33.535Z,50.68
2022-07-31T16:51:33.505Z,51.47
2022-07-31T16:52:33.495Z,52.09
2022-07-31T16:54:10.856Z,52.49
2022-07-31T16:54:34.475Z,51.79
2022-07-31T16:56:00.033Z,50.70
2022-07-31T16:56:34.486Z,50.81
2022-07-31T16:57:33.445Z,51.52
2022-07-31T16:58:33.435Z,50.63
2022-07-31T16:59:33.425Z,50.83
2022-07-31T17:00:34.450Z,51.03
2022-07-31T17:01:57.775Z,51.52
2022-07-31T17:02:34.406Z,51.42
2022-07-31T17:04:02.077Z,51.62
2022-07-31T17:04:34.384Z,51.62
2022-07-31T17:05:33.346Z,51.84
2022-07-31T17:06:34.647Z,52.04
2022-07-31T17:07:33.325Z,52.94
2022-07-31T17:08:33.338Z,52.84
2022-07-31T17:09:33.307Z,52.84
2022-07-31T17:10:33.294Z,53.93
2022-07-31T17:11:33.275Z,53.33
2022-07-31T17:12:33.279Z,52.54
2022-07-31T17:13:33.263Z,53.04
2022-07-31T17:14:33.262Z,53.04
2022-07-31T17:15:33.234Z,54.23
2022-07-31T17:16:33.246Z,54.23
2022-07-31T17:17:33.215Z,53.83
2022-07-31T17:18:33.204Z,55.22
2022-07-31T17:19:42.573Z,53.80
2022-07-31T17:20:34.184Z,54.10
2022-07-31T17:21:33.165Z,52.91
2022-07-31T17:22:33.165Z,52.61
2022-07-31T17:23:43.294Z,53.21
2022-07-31T17:24:34.144Z,54.10
2022-07-31T17:25:33.125Z,53.80
2022-07-31T17:26:33.114Z,54.50
2022-07-31T17:27:33.107Z,54.10
2022-07-31T17:28:33.094Z,54.21
2022-07-31T17:29:33.096Z,55.40
2022-07-31T17:30:33.074Z,54.90
2022-07-31T17:31:33.055Z,55.40
2022-07-31T17:32:33.044Z,55.69
2022-07-31T17:33:59.627Z,54.80
2022-07-31T17:34:34.025Z,55.29
2022-07-31T17:35:33.024Z,55.69
2022-07-31T17:36:33.033Z,55.59
2022-07-31T17:37:32.995Z,56.19
2022-07-31T17:38:32.975Z,56.29
2022-07-31T17:39:32.978Z,55.40
2022-07-31T17:40:43.554Z,55.22
2022-07-31T17:41:33.983Z,54.13
2022-07-31T17:42:32.934Z,53.93
2022-07-31T17:43:49.909Z,53.93
2022-07-31T17:44:33.942Z,54.82
2022-07-31T17:45:50.885Z,54.43
2022-07-31T17:46:36.229Z,54.63
2022-07-31T17:47:32.875Z,55.15
2022-07-31T17:48:32.876Z,57.53
2022-07-31T17:49:32.935Z,57.24
2022-07-31T17:50:32.843Z,57.24
2022-07-31T17:51:32.844Z,57.64
2022-07-31T17:52:32.813Z,55.74
2022-07-31T17:53:54.673Z,54.55
2022-07-31T17:54:33.795Z,54.48
2022-07-31T17:55:32.794Z,54.38
2022-07-31T17:56:32.775Z,54.48
2022-07-31T17:57:32.784Z,54.68
2022-07-31T17:58:32.752Z,54.48
2022-07-31T17:59:32.753Z,54.28
2022-07-31T18:00:32.783Z,53.98
2022-07-31T18:01:32.745Z,53.88
2022-07-31T18:02:32.753Z,54.68
2022-07-31T18:03:32.744Z,54.97
2022-07-31T18:04:32.768Z,54.78
2022-07-31T18:05:32.674Z,54.78
2022-07-31T18:06:32.667Z,55.18
2022-07-31T18:07:32.673Z,55.97
2022-07-31T18:08:32.644Z,56.17
2022-07-31T18:09:32.625Z,57.66
2022-07-31T18:10:52.184Z,55.97
2022-07-31T18:11:33.609Z,56.79
2022-07-31T18:12:57.573Z,59.08
2022-07-31T18:13:47.856Z,59.58
2022-07-31T18:14:33.564Z,58.58
2022-07-31T18:15:34.673Z,57.79
2022-07-31T18:16:32.544Z,58.39
2022-07-31T18:17:32.553Z,58.98
2022-07-31T18:18:32.524Z,58.39
2022-07-31T18:19:32.513Z,57.19
2022-07-31T18:20:32.503Z,57.42
2022-07-31T18:21:32.493Z,56.82
2022-07-31T18:22:35.004Z,58.01
2022-07-31T18:23:33.484Z,58.31
2022-07-31T18:24:32.769Z,58.01
2022-07-31T18:25:32.451Z,58.01
2022-07-31T18:26:32.432Z,58.11
2022-07-31T18:27:32.433Z,60.30
2022-07-31T18:28:32.414Z,59.81
2022-07-31T18:29:32.421Z,59.31
2022-07-31T18:30:35.870Z,58.34
2022-07-31T18:31:35.357Z,60.43
2022-07-31T18:32:32.613Z,60.53
2022-07-31T18:33:32.374Z,60.63
2022-07-31T18:34:32.343Z,59.64
2022-07-31T18:35:32.333Z,59.64
2022-07-31T18:36:32.325Z,61.03
2022-07-31T18:37:32.339Z,62.15
2022-07-31T18:38:32.302Z,62.45
2022-07-31T18:39:32.295Z,63.15
2022-07-31T18:40:32.274Z,63.25
2022-07-31T18:41:32.264Z,63.85
2022-07-31T18:42:32.253Z,64.94
2022-07-31T18:43:32.254Z,65.47
2022-07-31T18:44:32.238Z,64.78
2022-07-31T18:45:32.223Z,64.28
2022-07-31T18:46:32.204Z,64.18
2022-07-31T18:47:32.223Z,64.21
2022-07-31T18:48:32.236Z,63.91
2022-07-31T18:51:00.585Z,63.01
2022-07-31T18:51:02.346Z,64.01
2022-07-31T18:51:33.206Z,64.90
2022-07-31T18:52:32.141Z,64.81
2022-07-31T18:53:32.379Z,65.73
2022-07-31T18:54:32.122Z,64.94
2022-07-31T18:55:32.104Z,64.64
2022-07-31T18:56:32.092Z,65.94
2022-07-31T18:57:33.011Z,66.13
2022-07-31T18:58:33.042Z,65.64
2022-07-31T18:59:32.063Z,65.56
2022-07-31T19:00:32.051Z,64.07
2022-07-31T19:01:32.106Z,64.07
2022-07-31T19:02:32.268Z,63.97
2022-07-31T19:03:32.023Z,64.47
2022-07-31T19:04:32.077Z,65.26
2022-07-31T19:05:31.992Z,65.26
2022-07-31T19:06:31.979Z,66.60
2022-07-31T19:07:36.073Z,66.30
2022-07-31T19:08:31.962Z,66.80
2022-07-31T19:09:31.951Z,66.70
2022-07-31T19:10:31.941Z,66.89
2022-07-31T19:11:31.921Z,67.49
2022-07-31T19:12:31.910Z,66.83
2022-07-31T19:13:31.902Z,67.13
2022-07-31T19:14:31.893Z,67.63
2022-07-31T19:15:31.893Z,67.63
2022-07-31T19:16:31.879Z,68.23
2022-07-31T19:17:44.028Z,68.06
2022-07-31T19:18:32.841Z,67.66
2022-07-31T19:19:52.714Z,67.96
2022-07-31T19:20:56.328Z,68.36
2022-07-31T19:21:42.505Z,68.26
2022-07-31T19:22:32.943Z,68.09
2022-07-31T19:23:31.802Z,68.79
2022-07-31T19:24:31.789Z,68.89
2022-07-31T19:25:31.780Z,69.19
2022-07-31T19:26:32.752Z,68.89
2022-07-31T19:27:47.804Z,68.39
2022-07-31T19:28:32.733Z,68.49
2022-07-31T19:29:31.781Z,69.02
2022-07-31T19:30:31.712Z,69.82
2022-07-31T19:31:31.791Z,69.82
2022-07-31T19:32:31.690Z,68.73
2022-07-31T19:33:31.899Z,69.32
2022-07-31T19:34:31.741Z,69.53
2022-07-31T19:35:31.669Z,68.86
2022-07-31T19:36:31.640Z,70.46
2022-07-31T19:37:31.634Z,70.16
2022-07-31T19:38:31.653Z,71.16
2022-07-31T19:39:31.607Z,71.46
2022-07-31T19:40:31.599Z,71.76
2022-07-31T19:41:32.509Z,71.76
2022-07-31T19:42:31.580Z,71.89
2022-07-31T19:43:31.570Z,71.39
2022-07-31T19:44:31.552Z,71.50
2022-07-31T19:45:31.540Z,71.59
2022-07-31T19:46:31.579Z,71.09
2022-07-31T19:47:31.532Z,71.69
2022-07-31T19:48:31.523Z,72.80
2022-07-31T19:49:34.040Z,73.10
2022-07-31T19:50:32.489Z,72.09
2022-07-31T19:51:31.470Z,71.73
2022-07-31T19:52:31.472Z,71.83
2022-07-31T19:53:31.460Z,72.83
2022-07-31T19:54:31.440Z,72.43
2022-07-31T19:55:36.134Z,72.03
2022-07-31T19:56:32.420Z,72.83
2022-07-31T19:57:31.408Z,73.43
2022-07-31T19:58:31.411Z,73.63
2022-07-31T19:59:31.380Z,73.70
2022-07-31T20:00:32.318Z,73.93
2022-07-31T20:01:31.462Z,74.20
2022-07-31T20:02:31.371Z,72.60
2022-07-31T20:03:32.793Z,72.23
2022-07-31T20:04:32.192Z,72.50
2022-07-31T20:05:31.309Z,71.89
2022-07-31T20:06:31.320Z,72.00
2022-07-31T20:07:33.142Z,72.89
2022-07-31T20:08:33.139Z,73.60
2022-07-31T20:09:31.263Z,73.30
2022-07-31T20:10:31.267Z,73.60
2022-07-31T20:11:31.239Z,72.30
2022-07-31T20:12:31.233Z,72.89
2022-07-31T20:13:31.229Z,72.60
2022-07-31T20:14:31.214Z,72.89
2022-07-31T20:15:52.358Z,73.00
2022-07-31T20:16:32.218Z,73.10
2022-07-31T20:17:31.169Z,73.10
2022-07-31T20:18:31.162Z,72.69
2022-07-31T20:19:31.148Z,72.80
2022-07-31T20:20:31.218Z,73.19
2022-07-31T20:21:31.887Z,73.00
2022-07-31T20:22:31.119Z,72.69
2022-07-31T20:23:31.263Z,72.19
2022-07-31T20:24:31.087Z,73.39
2022-07-31T20:25:31.080Z,72.69
2022-07-31T20:26:31.085Z,72.30
2022-07-31T20:27:31.171Z,73.00
2022-07-31T20:28:31.119Z,72.00
2022-07-31T20:29:31.209Z,72.39
2022-07-31T20:30:31.976Z,71.89
2022-07-31T20:31:31.027Z,72.69
2022-07-31T20:32:30.997Z,72.80
2022-07-31T20:33:31.006Z,72.69
2022-07-31T20:34:30.993Z,72.89
2022-07-31T20:35:46.774Z,72.09
2022-07-31T20:36:31.987Z,72.00
2022-07-31T20:37:32.301Z,72.19
2022-07-31T20:38:30.939Z,72.00
2022-07-31T20:39:33.939Z,73.00
2022-07-31T20:40:30.909Z,73.39
2022-07-31T20:41:30.897Z,73.10
2022-07-31T20:42:30.908Z,72.80
2022-07-31T20:43:30.874Z,73.10
2022-07-31T20:44:30.864Z,72.69
2022-07-31T20:45:30.847Z,72.69
2022-07-31T20:46:30.848Z,71.39
2022-07-31T20:47:30.829Z,71.30
2022-07-31T20:48:30.845Z,72.09
2022-07-31T20:49:35.705Z,72.09
2022-07-31T20:50:31.797Z,72.30
2022-07-31T20:51:30.785Z,72.19
2022-07-31T20:52:30.789Z,72.69
2022-07-31T20:53:30.761Z,72.19
2022-07-31T20:54:34.634Z,71.89
2022-07-31T20:55:30.736Z,72.30
2022-07-31T20:56:30.725Z,72.00
2022-07-31T20:57:30.706Z,71.89
2022-07-31T20:58:30.706Z,71.50
2022-07-31T20:59:30.706Z,71.89
2022-07-31T21:00:30.690Z,71.80
2022-07-31T21:01:30.730Z,71.59
2022-07-31T21:02:30.656Z,71.30
2022-07-31T21:03:30.645Z,71.00
2022-07-31T21:04:30.656Z,72.19
2022-07-31T21:05:30.635Z,72.50
2022-07-31T21:06:30.606Z,71.00
2022-07-31T21:07:30.598Z,71.19
2022-07-31T21:08:30.603Z,72.03
2022-07-31T21:09:30.574Z,72.83
2022-07-31T21:10:30.568Z,73.43
2022-07-31T21:11:31.293Z,73.83
2022-07-31T21:12:30.546Z,74.03
2022-07-31T21:13:30.526Z,73.93
2022-07-31T21:14:30.526Z,73.93
2022-07-31T21:15:42.899Z,73.83
2022-07-31T21:16:31.495Z,74.33
2022-07-31T21:17:30.476Z,74.54
2022-07-31T21:18:34.269Z,74.63
2022-07-31T21:19:30.475Z,75.23
2022-07-31T21:20:50.750Z,75.13
2022-07-31T21:21:31.435Z,75.43
2022-07-31T21:22:30.434Z,75.34
2022-07-31T21:23:30.406Z,75.34
2022-07-31T21:24:30.414Z,75.54
2022-07-31T21:25:30.395Z,75.43
2022-07-31T21:26:30.386Z,75.67
2022-07-31T21:27:30.365Z,74.97
2022-07-31T21:28:30.360Z,75.07
2022-07-31T21:29:30.334Z,75.07
2022-07-31T21:30:30.329Z,74.87
2022-07-31T21:31:30.320Z,75.37
2022-07-31T21:32:30.315Z,75.17
2022-07-31T21:33:30.303Z,75.47
2022-07-31T21:34:30.294Z,75.57
2022-07-31T21:35:36.533Z,75.47
2022-07-31T21:36:31.257Z,74.87
2022-07-31T21:37:40.169Z,75.37
2022-07-31T21:38:31.255Z,75.17
2022-07-31T21:39:30.227Z,75.60
2022-07-31T21:40:30.215Z,75.31
2022-07-31T21:41:30.202Z,74.90
2022-07-31T21:42:30.194Z,75.60
2022-07-31T21:43:39.090Z,75.60
2022-07-31T21:44:31.175Z,75.71
2022-07-31T21:45:50.549Z,75.41
2022-07-31T21:46:31.143Z,75.60
2022-07-31T21:47:30.134Z,75.81
2022-07-31T21:48:31.123Z,76.41
2022-07-31T21:49:30.138Z,76.71
2022-07-31T21:50:30.124Z,76.61
2022-07-31T21:51:30.083Z,77.01
2022-07-31T21:52:30.078Z,76.81
2022-07-31T21:53:30.076Z,77.01
2022-07-31T21:54:30.053Z,76.91
2022-07-31T21:55:30.046Z,76.11
2022-07-31T21:56:30.036Z,76.31
2022-07-31T21:57:30.043Z,76.91
2022-07-31T21:58:31.015Z,76.75
2022-07-31T21:59:29.993Z,76.75
2022-07-31T22:00:29.989Z,77.05
2022-07-31T22:01:30.077Z,77.11
2022-07-31T22:02:29.965Z,76.75
2022-07-31T22:03:29.951Z,76.75
2022-07-31T22:04:34.850Z,76.75
2022-07-31T22:05:30.924Z,76.75
2022-07-31T22:06:29.915Z,75.64
2022-07-31T22:07:29.914Z,75.64
2022-07-31T22:08:29.915Z,76.34
2022-07-31T22:09:29.885Z,76.34
2022-07-31T22:10:31.595Z,75.74
2022-07-31T22:11:29.866Z,75.34
2022-07-31T22:12:29.843Z,75.24
2022-07-31T22:13:29.850Z,74.54
2022-07-31T22:14:29.835Z,74.74
2022-07-31T22:15:50.540Z,73.44
2022-07-31T22:16:30.803Z,74.54
2022-07-31T22:17:29.794Z,73.33
2022-07-31T22:18:29.822Z,74.04
2022-07-31T22:19:29.782Z,72.83
2022-07-31T22:20:29.768Z,71.93
2022-07-31T22:21:29.754Z,71.63
2022-07-31T22:22:29.752Z,71.83
2022-07-31T22:23:29.739Z,71.53
2022-07-31T22:24:29.724Z,70.29
2022-07-31T22:25:29.703Z,70.69
2022-07-31T22:26:29.724Z,69.39
2022-07-31T22:27:29.689Z,70.29
2022-07-31T22:28:29.697Z,70.19
2022-07-31T22:29:29.660Z,69.19
2022-07-31T22:30:29.651Z,68.59
2022-07-31T22:31:29.633Z,69.46
2022-07-31T22:32:29.642Z,68.85
2022-07-31T22:33:29.612Z,67.85
2022-07-31T22:34:37.925Z,67.96
2022-07-31T22:35:30.585Z,67.65
2022-07-31T22:36:29.582Z,66.82
2022-07-31T22:37:29.562Z,68.32
2022-07-31T22:38:29.648Z,65.72
2022-07-31T22:39:29.561Z,65.72
2022-07-31T22:40:29.533Z,65.78
2022-07-31T22:41:29.532Z,66.09
2022-07-31T22:42:29.513Z,65.78
2022-07-31T22:44:05.579Z,66.19
2022-07-31T22:44:30.483Z,65.99
2022-07-31T22:45:29.475Z,65.28
2022-07-31T22:46:29.461Z,64.89
2022-07-31T22:47:29.451Z,65.55
2022-07-31T22:48:29.463Z,64.65
2022-07-31T22:49:29.488Z,64.06
2022-07-31T22:50:29.419Z,64.45
2022-07-31T22:51:29.402Z,64.45
2022-07-31T22:52:34.560Z,64.36
2022-07-31T22:53:30.401Z,64.06
2022-07-31T22:54:29.373Z,64.25
2022-07-31T22:55:29.351Z,64.06
2022-07-31T22:56:29.343Z,63.95
2022-07-31T22:57:29.345Z,64.06
2022-07-31T22:58:29.321Z,64.86
2022-07-31T22:59:29.324Z,63.75
2022-07-31T23:00:29.318Z,64.15
2022-07-31T23:01:29.323Z,64.06
2022-07-31T23:02:29.369Z,63.65
2022-07-31T23:03:29.261Z,63.35
2022-07-31T23:04:29.250Z,63.56
2022-07-31T23:05:29.253Z,64.06
2022-07-31T23:06:32.661Z,63.45
2022-07-31T23:07:29.225Z,63.45
2022-07-31T23:08:29.212Z,63.56
2022-07-31T23:09:29.210Z,63.15
2022-07-31T23:10:29.210Z,63.25
2022-07-31T23:11:29.186Z,62.95
2022-07-31T23:12:29.507Z,63.06
2022-07-31T23:13:29.141Z,63.32
2022-07-31T23:14:29.139Z,63.12
2022-07-31T23:15:29.122Z,63.82
2022-07-31T23:16:29.122Z,63.35
2022-07-31T23:17:29.101Z,63.25